createdAt,value
2022-11-12T00:01:00.613Z,101026.63
2022-11-12T00:03:30.095Z,101025.41
2022-11-12T00:05:59.639Z,101041.38
2022-11-12T00:08:29.590Z,101030.84
2022-11-12T00:10:59.525Z,101029.72
2022-11-12T00:13:29.689Z,101029.09
2022-11-12T00:16:01.122Z,101025.31
2022-11-12T00:18:30.758Z,101021.91
2022-11-12T00:21:00.327Z,101023.78
2022-11-12T00:23:29.867Z,101024.56
2022-11-12T00:26:00.254Z,101014.25
2022-11-12T00:28:34.796Z,101024.06
2022-11-12T00:31:12.602Z,101020.69
2022-11-12T00:33:42.665Z,101013.50
2022-11-12T00:36:12.697Z,101020.59
2022-11-12T00:38:42.216Z,101012.88
2022-11-12T00:41:11.917Z,101013.94
2022-11-12T00:43:41.389Z,101013.94
2022-11-12T00:46:12.897Z,101012.78
2022-11-12T00:48:42.410Z,101014.63
2022-11-12T00:51:12.058Z,101008.09
2022-11-12T00:53:41.594Z,101012.22
2022-11-12T00:56:11.100Z,101007.25
2022-11-12T00:58:40.553Z,101000.22
2022-11-12T01:01:11.396Z,101002.88
2022-11-12T01:03:42.755Z,100992.22
2022-11-12T01:06:13.353Z,100994.03
2022-11-12T01:08:43.672Z,100990.41
2022-11-12T01:11:14.292Z,100989.84
2022-11-12T01:13:46.152Z,100991.44
2022-11-12T01:16:17.613Z,100988.78
2022-11-12T01:18:49.206Z,100986.06
2022-11-12T01:21:18.767Z,100986.81
2022-11-12T01:23:48.401Z,100991.53
2022-11-12T01:26:22.873Z,100983.06
2022-11-12T01:28:52.328Z,100983.53
2022-11-12T01:31:22.833Z,100988.19
2022-11-12T01:33:55.711Z,100989.13
2022-11-12T01:36:26.053Z,100996.94
2022-11-12T01:38:55.633Z,100979.53
2022-11-12T01:41:26.766Z,100992.31
2022-11-12T01:44:09.357Z,100993.88
2022-11-12T01:46:42.751Z,100994.88
2022-11-12T01:49:15.235Z,100994.03
2022-11-12T01:51:48.299Z,100990.78
2022-11-12T01:54:19.885Z,100995.16
2022-11-12T01:56:50.840Z,100994.88
2022-11-12T01:59:23.109Z,100996.63
2022-11-12T02:01:52.639Z,100995.31
2022-11-12T02:04:23.945Z,101003.34
2022-11-12T02:06:54.100Z,101001.56
2022-11-12T02:09:23.721Z,101004.50
2022-11-12T02:11:53.665Z,101000.97
2022-11-12T02:14:22.947Z,101007.09
2022-11-12T02:16:53.021Z,101010.16
2022-11-12T02:19:23.854Z,101008.94
2022-11-12T02:21:54.766Z,101009.47
2022-11-12T02:24:34.881Z,101009.38
2022-11-12T02:27:05.086Z,101007.75
2022-11-12T02:29:34.712Z,101009.66
2022-11-12T02:32:04.249Z,101012.66
2022-11-12T02:34:33.786Z,101011.44
2022-11-12T02:37:04.712Z,101014.09
2022-11-12T02:39:34.201Z,101014.44
2022-11-12T02:42:04.023Z,101010.06
2022-11-12T02:44:33.554Z,101008.78
2022-11-12T02:47:03.290Z,101005.19
2022-11-12T02:49:32.772Z,101011.53
2022-11-12T02:52:02.256Z,101012.72
2022-11-12T02:54:33.171Z,101008.56
2022-11-12T02:57:02.690Z,101006.75
2022-11-12T02:59:32.189Z,101009.56
2022-11-12T03:02:01.728Z,101005.97
2022-11-12T03:04:31.277Z,101005.81
2022-11-12T03:07:01.432Z,101002.19
2022-11-12T03:09:31.013Z,101004.84
2022-11-12T03:12:03.408Z,101008.63
2022-11-12T03:14:33.433Z,101006.81
2022-11-12T03:17:03.347Z,101013.97
2022-11-12T03:19:32.881Z,101020.31
2022-11-12T03:22:02.443Z,101015.75
2022-11-12T03:24:31.947Z,101020.97
2022-11-12T03:27:02.931Z,101022.69
2022-11-12T03:29:32.482Z,101027.19
2022-11-12T03:32:02.019Z,101031.13
2022-11-12T03:34:31.587Z,101027.50
2022-11-12T03:37:01.156Z,101039.31
2022-11-12T03:39:30.676Z,101038.09
2022-11-12T03:42:00.256Z,101033.06
2022-11-12T03:44:31.160Z,101038.72
2022-11-12T03:47:00.773Z,101039.25
2022-11-12T03:49:30.285Z,101038.13
2022-11-12T03:51:59.824Z,101039.88
2022-11-12T03:54:29.318Z,101037.22
2022-11-12T03:56:58.763Z,101045.38
2022-11-12T03:59:28.213Z,101038.72
2022-11-12T04:01:59.099Z,101043.09
2022-11-12T04:04:49.200Z,101044.63
2022-11-12T04:07:35.997Z,101040.69
2022-11-12T04:10:05.871Z,101036.41
2022-11-12T04:12:53.127Z,101037.16
2022-11-12T04:15:23.312Z,101035.88
2022-11-12T04:18:12.193Z,101041.72
2022-11-12T04:21:01.179Z,101033.56
2022-11-12T04:23:30.950Z,101031.09
2022-11-12T04:26:19.086Z,101029.53
2022-11-12T04:29:02.599Z,101028.84
2022-11-12T04:31:32.196Z,101028.34
2022-11-12T04:34:16.973Z,101027.97
2022-11-12T04:36:46.583Z,101033.81
2022-11-12T04:39:16.153Z,101029.09
2022-11-12T04:42:02.915Z,101029.09
2022-11-12T04:44:49.598Z,101032.94
2022-11-12T04:47:19.170Z,101025.84
2022-11-12T04:49:50.198Z,101033.81
2022-11-12T04:52:19.877Z,101035.34
2022-11-12T04:54:49.444Z,101033.97
2022-11-12T04:57:18.996Z,101035.00
2022-11-12T04:59:49.032Z,101032.59
2022-11-12T05:02:18.940Z,101040.81
2022-11-12T05:04:48.669Z,101036.28
2022-11-12T05:07:19.929Z,101028.97
2022-11-12T05:09:49.496Z,101035.16
2022-11-12T05:12:19.872Z,101035.06
2022-11-12T05:14:49.944Z,101034.00
2022-11-12T05:17:19.981Z,101033.94
2022-11-12T05:19:49.557Z,101035.06
2022-11-12T05:22:40.688Z,101031.88
2022-11-12T05:25:10.305Z,101031.78
2022-11-12T05:27:39.988Z,101043.44
2022-11-12T05:30:10.097Z,101042.66
2022-11-12T05:32:39.652Z,101042.91
2022-11-12T05:35:09.347Z,101045.72
2022-11-12T05:37:41.593Z,101049.91
2022-11-12T05:40:11.420Z,101052.75
2022-11-12T05:42:40.889Z,101041.28
2022-11-12T05:45:10.733Z,101043.06
2022-11-12T05:47:40.232Z,101051.56
2022-11-12T05:50:10.077Z,101055.81
2022-11-12T05:52:40.936Z,101059.72
2022-11-12T05:55:10.705Z,101060.28
2022-11-12T05:57:40.132Z,101064.56
2022-11-12T06:00:10.740Z,101059.41
2022-11-12T06:02:40.457Z,101059.25
2022-11-12T06:05:10.585Z,101045.44
2022-11-12T06:07:41.425Z,101053.78
2022-11-12T06:10:13.808Z,101054.47
2022-11-12T06:12:47.262Z,101056.78
2022-11-12T06:15:16.804Z,101058.78
2022-11-12T06:17:46.443Z,101056.28
2022-11-12T06:20:19.210Z,101058.78
2022-11-12T06:23:00.193Z,101065.19
2022-11-12T06:25:29.730Z,101065.78
2022-11-12T06:27:59.296Z,101070.97
2022-11-12T06:30:29.258Z,101078.38
2022-11-12T06:33:05.820Z,101076.28
2022-11-12T06:35:39.052Z,101085.66
2022-11-12T06:38:12.760Z,101086.91
2022-11-12T06:40:42.923Z,101100.13
2022-11-12T06:43:12.445Z,101104.09
2022-11-12T06:45:42.110Z,101107.75
2022-11-12T06:48:11.718Z,101113.75
2022-11-12T06:50:41.336Z,101118.94
2022-11-12T06:53:12.302Z,101122.53
2022-11-12T06:55:41.924Z,101116.44
2022-11-12T06:58:11.553Z,101120.22
2022-11-12T07:00:41.149Z,101126.38
2022-11-12T07:03:11.280Z,101126.13
2022-11-12T07:05:41.085Z,101133.94
2022-11-12T07:08:12.037Z,101131.28
2022-11-12T07:10:41.607Z,101137.16
2022-11-12T07:13:12.485Z,101132.00
2022-11-12T07:15:42.729Z,101134.66
2022-11-12T07:18:12.306Z,101131.19
2022-11-12T07:20:41.893Z,101140.81
2022-11-12T07:23:13.068Z,101133.78
2022-11-12T07:25:42.768Z,101132.94
2022-11-12T07:28:12.745Z,101139.88
2022-11-12T07:30:42.373Z,101144.28
2022-11-12T07:33:12.014Z,101143.94
2022-11-12T07:35:42.190Z,101146.53
2022-11-12T07:38:32.355Z,101134.00
2022-11-12T07:41:02.630Z,101144.09
2022-11-12T07:43:32.694Z,101142.06
2022-11-12T07:46:09.033Z,101139.88
2022-11-12T07:48:40.343Z,101131.91
2022-11-12T07:51:15.822Z,101120.34
2022-11-12T07:53:47.468Z,101123.84
2022-11-12T07:56:18.292Z,101126.44
2022-11-12T07:58:48.286Z,101130.91
2022-11-12T08:01:24.034Z,101127.91
2022-11-12T08:03:53.592Z,101135.56
2022-11-12T08:06:23.216Z,101136.91
2022-11-12T08:08:54.565Z,101133.47
2022-11-12T08:11:24.289Z,101138.00
2022-11-12T08:13:54.457Z,101138.63
2022-11-12T08:16:24.456Z,101133.31
2022-11-12T08:18:54.064Z,101125.34
2022-11-12T08:21:23.677Z,101129.38
2022-11-12T08:23:54.855Z,101139.56
2022-11-12T08:26:24.465Z,101148.63
2022-11-12T08:28:54.177Z,101154.91
2022-11-12T08:31:24.005Z,101153.19
2022-11-12T08:33:53.519Z,101152.31
2022-11-12T08:36:23.093Z,101149.94
2022-11-12T08:38:54.745Z,101153.56
2022-11-12T08:41:38.726Z,101158.00
2022-11-12T08:44:09.036Z,101152.16
2022-11-12T08:46:39.023Z,101152.78
2022-11-12T08:49:08.632Z,101156.53
2022-11-12T08:51:38.536Z,101157.50
2022-11-12T08:54:09.473Z,101153.94
2022-11-12T08:56:42.383Z,101159.69
2022-11-12T08:59:12.196Z,101157.50
2022-11-12T09:01:41.831Z,101166.56
2022-11-12T09:04:11.697Z,101162.25
2022-11-12T09:06:41.337Z,101163.19
2022-11-12T09:09:12.381Z,101162.34
2022-11-12T09:11:42.393Z,101159.50
2022-11-12T09:14:12.464Z,101166.41
2022-11-12T09:16:42.553Z,101155.38
2022-11-12T09:19:12.208Z,101161.47
2022-11-12T09:21:41.777Z,101163.19
2022-11-12T09:24:12.842Z,101154.34
2022-11-12T09:26:42.593Z,101159.75
2022-11-12T09:29:12.358Z,101155.13
2022-11-12T09:31:41.934Z,101158.41
2022-11-12T09:34:11.642Z,101152.53
2022-11-12T09:36:41.470Z,101163.25
2022-11-12T09:39:12.397Z,101159.03
2022-11-12T09:41:43.105Z,101158.97
2022-11-12T09:44:13.489Z,101159.75
2022-11-12T09:46:45.880Z,101159.03
2022-11-12T09:49:17.440Z,101154.59
2022-11-12T09:51:50.802Z,101161.00
2022-11-12T09:54:23.657Z,101156.78
2022-11-12T09:56:54.146Z,101153.13
2022-11-12T09:59:24.270Z,101147.09
2022-11-12T10:02:00.025Z,101142.72
2022-11-12T10:04:38.529Z,101145.38
2022-11-12T10:07:13.372Z,101139.09
2022-11-12T10:09:46.722Z,101142.72
2022-11-12T10:12:33.322Z,101152.22
2022-11-12T10:15:35.301Z,101153.03
2022-11-12T10:18:08.922Z,101148.81
2022-11-12T10:20:42.401Z,101142.72
2022-11-12T10:23:16.666Z,101143.25
2022-11-12T10:25:49.199Z,101141.47
2022-11-12T10:28:25.875Z,101140.69
2022-11-12T10:30:58.323Z,101141.56
2022-11-12T10:33:30.906Z,101139.75
2022-11-12T10:36:13.298Z,101137.84
2022-11-12T10:38:44.800Z,101129.19
2022-11-12T10:41:23.485Z,101133.88
2022-11-12T10:43:57.453Z,101131.94
2022-11-12T10:46:28.204Z,101131.84
2022-11-12T10:48:59.732Z,101133.94
2022-11-12T10:51:30.897Z,101133.59
2022-11-12T10:54:00.916Z,101130.25
2022-11-12T10:56:32.774Z,101130.19
2022-11-12T10:59:12.641Z,101124.47
2022-11-12T11:01:45.659Z,101116.75
2022-11-12T11:04:23.710Z,101110.34
2022-11-12T11:06:59.529Z,101112.06
2022-11-12T11:09:29.162Z,101112.75
2022-11-12T11:12:01.472Z,101109.31
2022-11-12T11:14:33.189Z,101115.97
2022-11-12T11:17:08.627Z,101107.19
2022-11-12T11:19:40.008Z,101103.59
2022-11-12T11:22:18.646Z,101101.66
2022-11-12T11:24:54.622Z,101096.72
2022-11-12T11:27:33.920Z,101112.50
2022-11-12T11:30:13.468Z,101117.81
2022-11-12T11:33:01.990Z,101114.16
2022-11-12T11:35:46.144Z,101111.25
2022-11-12T11:38:21.757Z,101107.56
2022-11-12T11:40:59.013Z,101098.19
2022-11-12T11:43:40.710Z,101088.50
2022-11-12T11:46:16.913Z,101089.97
2022-11-12T11:48:51.864Z,101083.47
2022-11-12T11:51:34.029Z,101093.50
2022-11-12T11:54:08.617Z,101092.47
2022-11-12T11:56:41.404Z,101105.84
2022-11-12T11:59:29.687Z,101096.75
2022-11-12T12:02:12.208Z,101113.50
2022-11-12T12:04:46.792Z,101109.22
2022-11-12T12:07:22.863Z,101110.41
2022-11-12T12:09:56.353Z,101104.22
2022-11-12T12:12:33.881Z,101092.78
2022-11-12T12:15:16.877Z,101095.72
2022-11-12T12:17:53.785Z,101100.84
2022-11-12T12:20:30.262Z,101097.09
2022-11-12T12:23:03.295Z,101105.16
2022-11-12T12:25:34.373Z,101084.06
2022-11-12T12:28:07.404Z,101082.00
2022-11-12T12:30:38.665Z,101052.06
2022-11-12T12:33:17.178Z,101048.56
2022-11-12T12:35:52.875Z,101055.50
2022-11-12T12:38:25.943Z,101051.28
2022-11-12T12:41:01.845Z,101059.88
2022-11-12T12:43:34.501Z,101053.63
2022-11-12T12:46:05.260Z,101060.72
2022-11-12T12:48:37.905Z,101059.78
2022-11-12T12:51:07.756Z,101063.91
2022-11-12T12:53:38.377Z,101059.38
2022-11-12T12:56:08.395Z,101066.16
2022-11-12T12:58:44.192Z,101067.03
2022-11-12T13:01:28.101Z,101068.72
2022-11-12T13:04:02.323Z,101073.97
2022-11-12T13:06:33.446Z,101077.59
2022-11-12T13:09:05.199Z,101074.84
2022-11-12T13:12:09.011Z,101074.84
2022-11-12T13:14:52.884Z,101073.97
2022-11-12T13:17:41.650Z,101084.59
2022-11-12T13:20:32.508Z,101084.78
2022-11-12T13:23:02.541Z,101082.03
2022-11-12T13:25:32.907Z,101076.63
2022-11-12T13:28:06.882Z,101080.16
2022-11-12T13:30:54.858Z,101072.34
2022-11-12T13:33:27.327Z,101064.19
2022-11-12T13:36:11.751Z,101067.72
2022-11-12T13:38:42.945Z,101068.63
2022-11-12T13:41:16.360Z,101070.63
2022-11-12T13:43:48.378Z,101080.25
2022-11-12T13:46:26.347Z,101065.03
2022-11-12T13:48:59.756Z,101064.88
2022-11-12T13:51:35.614Z,101072.69
2022-11-12T13:54:20.390Z,101077.25
2022-11-12T13:56:51.403Z,101083.25
2022-11-12T13:59:22.464Z,101077.91
2022-11-12T14:01:52.133Z,101075.44
2022-11-12T14:04:24.386Z,101084.88
2022-11-12T14:06:55.265Z,101089.59
2022-11-12T14:09:39.975Z,101091.47
2022-11-12T14:12:23.191Z,101096.63
2022-11-12T14:15:03.978Z,101096.03
2022-11-12T14:17:38.653Z,101087.25
2022-11-12T14:20:21.496Z,101100.41
2022-11-12T14:22:51.534Z,101100.16
2022-11-12T14:25:22.700Z,101100.25
2022-11-12T14:27:54.966Z,101104.00
2022-11-12T14:30:26.006Z,101101.19
2022-11-12T14:32:59.283Z,101101.34
2022-11-12T14:35:31.587Z,101106.75
2022-11-12T14:38:05.618Z,101104.78
2022-11-12T14:40:36.952Z,101107.44
2022-11-12T14:43:07.975Z,101110.19
2022-11-12T14:45:37.714Z,101117.06
2022-11-12T14:48:09.745Z,101061.84
2022-11-12T14:50:41.643Z,101121.34
2022-11-12T14:53:16.525Z,101125.97
2022-11-12T14:55:50.113Z,101119.97
2022-11-12T14:58:22.582Z,101121.69
2022-11-12T15:00:53.214Z,101125.03
2022-11-12T15:03:24.917Z,101122.13
2022-11-12T15:05:55.710Z,101126.69
2022-11-12T15:08:29.897Z,101127.63
2022-11-12T15:11:18.858Z,101119.28
2022-11-12T15:13:54.295Z,101123.06
2022-11-12T15:16:25.472Z,101114.13
2022-11-12T15:19:12.720Z,101117.59
2022-11-12T15:21:45.987Z,101105.22
2022-11-12T15:24:19.833Z,101115.06
2022-11-12T15:26:50.673Z,101113.28
2022-11-12T15:29:25.117Z,101114.41
2022-11-12T15:31:57.049Z,101114.47
2022-11-12T15:34:46.480Z,101116.22
2022-11-12T15:37:22.517Z,101120.72
2022-11-12T15:39:53.558Z,101123.56
2022-11-12T15:42:26.480Z,101125.03
2022-11-12T15:44:59.868Z,101127.78
2022-11-12T15:47:29.535Z,101124.34
2022-11-12T15:50:00.037Z,101131.28
2022-11-12T15:52:29.704Z,101132.16
2022-11-12T15:54:59.449Z,101132.16
2022-11-12T15:57:31.282Z,101134.03
2022-11-12T16:00:07.783Z,101136.34
2022-11-12T16:02:38.241Z,101136.44
2022-11-12T16:05:13.027Z,101145.47
2022-11-12T16:07:42.962Z,101144.66
2022-11-12T16:10:14.518Z,101145.47
2022-11-12T16:12:47.365Z,101136.59
2022-11-12T16:15:20.635Z,101144.66
2022-11-12T16:17:50.440Z,101149.06
2022-11-12T16:20:22.037Z,101153.66
2022-11-12T16:22:52.624Z,101154.28
2022-11-12T16:25:23.014Z,101152.19
2022-11-12T16:27:55.854Z,101154.53
2022-11-12T16:30:29.031Z,101158.22
2022-11-12T16:32:59.286Z,101153.75
2022-11-12T16:35:29.873Z,101163.47
2022-11-12T16:37:59.746Z,101163.47
2022-11-12T16:40:30.659Z,101159.22
2022-11-12T16:43:00.319Z,101164.03
2022-11-12T16:45:35.761Z,101161.13
2022-11-12T16:48:11.929Z,101163.00
2022-11-12T16:50:41.554Z,101169.28
2022-11-12T16:53:11.169Z,101165.72
2022-11-12T16:55:40.885Z,101161.97
2022-11-12T16:58:13.650Z,101160.19
2022-11-12T17:00:46.185Z,101167.13
2022-11-12T17:03:16.073Z,101156.66
2022-11-12T17:05:45.881Z,101158.22
2022-11-12T17:08:15.517Z,101155.66
2022-11-12T17:10:47.187Z,101151.97
2022-11-12T17:13:17.852Z,101150.25
2022-11-12T17:15:49.318Z,101158.31
2022-11-12T17:18:19.080Z,101152.22
2022-11-12T17:20:51.400Z,101153.91
2022-11-12T17:23:21.241Z,101159.22
2022-11-12T17:26:00.274Z,101154.94
2022-11-12T17:28:30.906Z,101157.47
2022-11-12T17:31:06.333Z,101155.72
2022-11-12T17:33:41.658Z,101152.97
2022-11-12T17:36:12.935Z,101155.41
2022-11-12T17:38:42.959Z,101152.97
2022-11-12T17:41:12.636Z,101150.31
2022-11-12T17:43:42.472Z,101162.69
2022-11-12T17:46:16.453Z,101165.94
2022-11-12T17:48:46.116Z,101168.69
2022-11-12T17:51:16.712Z,101164.31
2022-11-12T17:53:47.144Z,101165.94
2022-11-12T17:56:17.996Z,101175.66
2022-11-12T17:58:48.535Z,101179.34
2022-11-12T18:01:20.607Z,101178.41
2022-11-12T18:03:50.881Z,101174.94
2022-11-12T18:06:22.036Z,101180.97
2022-11-12T18:08:53.949Z,101173.00
2022-11-12T18:11:24.109Z,101180.03
2022-11-12T18:13:54.871Z,101182.72
2022-11-12T18:16:27.005Z,101184.66
2022-11-12T18:18:57.500Z,101180.72
2022-11-12T18:21:28.384Z,101187.94
2022-11-12T18:23:58.415Z,101183.47
2022-11-12T18:26:28.177Z,101177.31
2022-11-12T18:28:58.565Z,101187.84
2022-11-12T18:31:29.882Z,101193.09
2022-11-12T18:33:59.615Z,101192.22
2022-11-12T18:36:29.263Z,101184.31
2022-11-12T18:38:59.360Z,101187.84
2022-11-12T18:41:30.220Z,101182.38
2022-11-12T18:44:00.269Z,101183.31
2022-11-12T18:46:31.442Z,101185.88
2022-11-12T18:49:01.465Z,101179.72
2022-11-12T18:51:31.181Z,101180.47
2022-11-12T18:54:01.054Z,101180.38
2022-11-12T18:56:30.761Z,101182.97
2022-11-12T18:59:00.857Z,101189.13
2022-11-12T19:01:32.045Z,101186.28
2022-11-12T19:04:01.982Z,101188.94
2022-11-12T19:06:31.666Z,101198.81
2022-11-12T19:09:01.927Z,101194.34
2022-11-12T19:11:31.938Z,101188.19
2022-11-12T19:14:02.096Z,101197.88
2022-11-12T19:16:33.902Z,101205.69
2022-11-12T19:19:03.457Z,101201.25
2022-11-12T19:21:33.191Z,101210.16
2022-11-12T19:24:02.850Z,101205.69
2022-11-12T19:26:32.540Z,101213.53
2022-11-12T19:29:02.617Z,101205.53
2022-11-12T19:31:34.523Z,101214.28
2022-11-12T19:34:04.345Z,101216.03
2022-11-12T19:36:34.400Z,101211.53
2022-11-12T19:39:04.165Z,101210.63
2022-11-12T19:41:33.754Z,101213.34
2022-11-12T19:44:03.417Z,101216.78
2022-11-12T19:46:34.735Z,101219.44
2022-11-12T19:49:04.445Z,101225.63
2022-11-12T19:51:34.499Z,101230.94
2022-11-12T19:54:04.480Z,101238.69
2022-11-12T19:56:34.283Z,101236.25
2022-11-12T19:59:04.212Z,101231.72
2022-11-12T20:01:35.294Z,101239.56
2022-11-12T20:04:05.105Z,101239.63
2022-11-12T20:06:34.853Z,101241.19
2022-11-12T20:09:04.881Z,101235.06
2022-11-12T20:11:35.430Z,101225.41
2022-11-12T20:14:05.574Z,101233.22
2022-11-12T20:16:36.998Z,101233.03
2022-11-12T20:19:06.677Z,101230.28
2022-11-12T20:21:36.310Z,101234.06
2022-11-12T20:24:06.236Z,101230.63
2022-11-12T20:26:35.942Z,101227.88
2022-11-12T20:29:05.672Z,101238.69
2022-11-12T20:31:35.418Z,101242.03
2022-11-12T20:34:06.478Z,101237.56
2022-11-12T20:36:36.305Z,101236.63
2022-11-12T20:39:06.246Z,101247.13
2022-11-12T20:41:35.939Z,101238.44
2022-11-12T20:44:05.958Z,101243.69
2022-11-12T20:46:35.789Z,101236.63
2022-11-12T20:49:08.634Z,101237.44
2022-11-12T20:51:38.269Z,101234.59
2022-11-12T20:54:09.829Z,101241.78
2022-11-12T20:56:41.241Z,101242.59
2022-11-12T20:59:11.158Z,101249.00
2022-11-12T21:01:41.175Z,101245.56
2022-11-12T21:04:13.371Z,101249.00
2022-11-12T21:06:43.098Z,101254.50
2022-11-12T21:09:12.842Z,101250.81
2022-11-12T21:11:43.313Z,101239.38
2022-11-12T21:14:15.198Z,101244.72
2022-11-12T21:16:45.593Z,101241.78
2022-11-12T21:19:16.904Z,101241.78
2022-11-12T21:21:46.991Z,101239.28
2022-11-12T21:24:16.652Z,101235.88
2022-11-12T21:26:46.403Z,101234.91
2022-11-12T21:29:18.957Z,101233.03
2022-11-12T21:31:48.888Z,101234.22
2022-11-12T21:34:20.019Z,101237.53
2022-11-12T21:36:49.660Z,101227.56
2022-11-12T21:39:19.257Z,101232.25
2022-11-12T21:41:48.825Z,101242.97
2022-11-12T21:44:18.398Z,101241.03
2022-11-12T21:46:48.063Z,101234.78
2022-11-12T21:49:17.607Z,101241.38
2022-11-12T21:51:48.624Z,101235.88
2022-11-12T21:54:18.167Z,101235.78
2022-11-12T21:56:47.840Z,101237.53
2022-11-12T21:59:17.518Z,101236.47
2022-11-12T22:01:47.226Z,101240.09
2022-11-12T22:04:18.477Z,101238.28
2022-11-12T22:06:49.651Z,101238.88
2022-11-12T22:09:19.229Z,101240.00
2022-11-12T22:11:49.420Z,101239.22
2022-11-12T22:14:19.603Z,101242.59
2022-11-12T22:16:49.847Z,101241.97
2022-11-12T22:19:21.399Z,101238.38
2022-11-12T22:21:52.479Z,101241.97
2022-11-12T22:24:22.095Z,101242.84
2022-11-12T22:26:51.758Z,101238.38
2022-11-12T22:29:21.298Z,101250.75
2022-11-12T22:31:50.980Z,101235.63
2022-11-12T22:34:20.550Z,101231.22
2022-11-12T22:36:50.195Z,101228.47
2022-11-12T22:39:21.163Z,101224.97
2022-11-12T22:41:50.825Z,101228.41
2022-11-12T22:44:20.620Z,101227.63
2022-11-12T22:46:50.264Z,101233.03
2022-11-12T22:49:19.804Z,101239.13
2022-11-12T22:51:49.381Z,101248.00
2022-11-12T22:54:19.013Z,101241.63
2022-11-12T22:56:49.953Z,101249.69
2022-11-12T22:59:19.644Z,101245.09
2022-11-12T23:01:49.389Z,101244.38
2022-11-12T23:04:19.070Z,101238.19
2022-11-12T23:06:48.703Z,101236.16
2022-11-12T23:09:18.456Z,101240.78
2022-11-12T23:11:50.066Z,101235.38
2022-11-12T23:14:20.229Z,101234.44
2022-11-12T23:16:50.194Z,101234.44
2022-11-12T23:19:19.712Z,101237.09
2022-11-12T23:21:49.497Z,101238.03
2022-11-12T23:24:19.485Z,101241.22
2022-11-12T23:26:50.453Z,101237.78
2022-11-12T23:29:20.026Z,101237.94
2022-11-12T23:31:49.637Z,101236.28
2022-11-12T23:34:19.439Z,101238.81
2022-11-12T23:36:49.117Z,101240.59
2022-11-12T23:39:18.734Z,101240.00
2022-11-12T23:41:48.391Z,101247.91
2022-11-12T23:44:19.346Z,101242.34
2022-11-12T23:46:49.017Z,101252.19
2022-11-12T23:49:18.553Z,101248.75
2022-11-12T23:51:48.214Z,101248.69
2022-11-12T23:54:17.834Z,101250.56
2022-11-12T23:56:47.456Z,101257.47
2022-11-12T23:59:16.997Z,101254.84
